Umitaka Maru — JPAT — position and weather

sailwx.info

Track history (hours):
 
Tides and Currents Weather Stations Pressure Air Temp Water Temp Dewpoint Dewpoint Depression Visibility Wind Speed Wind Dir Waves Ship Positions

Oceanographic research ship Umitaka Maru (Japan)

Detailed information on ship capabilities available from University of Delaware's Ocean Information Center.

Last reported at 2017-Oct-17 09:21 UTC. Time now 2017-Oct-17 15:10 UTC.
Position N 35°39' E 139°46'.

Length 93 m; beam 14.9 m; draft 6 m.

Type: Other ship. MMSI: 432187000.

Date/timePositionNaut miles runAvg speedWind from/ knotsBaromVisibWave heightAir tempDewpointWater temp
2017-Oct-17 09:21N 35°39' E 139°46'0 0.0
2017-Oct-17 08:27N 35°39' E 139°46'0 0.0
2017-Oct-17 07:51N 35°39' E 139°46'0 0.0
2017-Oct-17 07:27N 35°39' E 139°46'0 0.0
2017-Oct-17 07:00N 35°39' E 139°46'0 0.0
2017-Oct-17 06:30N 35°39' E 139°46'0 0.0
2017-Oct-17 06:00N 35°39' E 139°46'0 0.0
2017-Oct-17 05:30N 35°39' E 139°46'0 0.0
2017-Oct-17 04:48N 35°39' E 139°46'0 0.0
2017-Oct-17 04:27N 35°39' E 139°46'  
2017-Oct-13 06:06N 35°39' E 139°46'0 0.0
2017-Oct-13 05:54N 35°39' E 139°46'0 0.0
2017-Oct-13 05:21N 35°39' E 139°46'0 0.0
2017-Oct-13 02:51N 35°39' E 139°46'0 0.0
2017-Oct-13 02:30N 35°39' E 139°46'0 0.0
2017-Oct-12 07:00N 35°39' E 139°46'0 0.0
2017-Oct-12 06:27N 35°39' E 139°46'0 0.0
2017-Oct-12 05:59N 35°39' E 139°46'0 0.0
2017-Oct-12 05:05N 35°39' E 139°46'0 0.0
2017-Oct-12 04:44N 35°39' E 139°46'0 0.0
2017-Oct-12 02:47N 35°39' E 139°46'0 0.0
2017-Oct-12 02:29N 35°39' E 139°46'0 0.0
2017-Oct-10 07:28N 35°39' E 139°46'0 0.0
2017-Oct-10 05:28N 35°39' E 139°46'0 0.0
2017-Oct-10 03:04N 35°39' E 139°46'0 0.0
2017-Oct-10 02:58N 35°39' E 139°46'0 0.0
2017-Oct-10 02:19N 35°39' E 139°46'0 0.0
2017-Oct-10 01:58N 35°39' E 139°46'0 0.0
2017-Oct-10 01:25N 35°39' E 139°46'0 0.0
2017-Oct-10 00:58N 35°39' E 139°46'0 0.0
2017-Oct-10 00:28N 35°39' E 139°46'0 0.0
2017-Oct-09 23:52N 35°39' E 139°46'0 0.0
2017-Oct-09 23:28N 35°39' E 139°46'0 0.0
2017-Oct-09 22:52N 35°39' E 139°46'13 0.7
2017-Oct-09 04:01N 35°26' E 139°49'012.7
2017-Oct-09 04:00N 35°26' E 139°49'712.3
2017-Oct-09 03:25N 35°20' E 139°44'511.6
2017-Oct-09 03:00N 35°16' E 139°47'511.0
2017-Oct-09 02:30N 35°10' E 139°46'5 9.9
2017-Oct-09 02:00N 35°06' E 139°43'510.8
2017-Oct-09 01:30N 35°06' E 139°36'510.7
2017-Oct-09 00:59N 35°06' E 139°30'1 2.4
2017-Oct-09 00:30N 35°06' E 139°28'1 1.2
2017-Oct-09 00:00N 35°05' E 139°28'1 1.8
2017-Oct-08 23:30N 35°04' E 139°28'611.2
2017-Oct-08 22:59N 35°03' E 139°34'612.1
2017-Oct-08 22:30N 35°02' E 139°42'612.5
2017-Oct-08 22:00N 35°00' E 139°49'2 2.9
2017-Oct-08 21:26N 34°60' E 139°51'0 0.0
2017-Oct-08 20:26N 34°60' E 139°51'0 0.0
2017-Oct-08 19:38N 34°60' E 139°51'0 0.0
2017-Oct-08 19:26N 34°60' E 139°51'0 0.0
2017-Oct-08 18:44N 34°60' E 139°51'0 0.0
2017-Oct-08 18:20N 34°60' E 139°51'0 0.0
2017-Oct-08 17:56N 34°60' E 139°51'0 0.0
2017-Oct-08 17:20N 34°60' E 139°51'0 0.0
2017-Oct-08 16:56N 34°60' E 139°51'0 0.0
2017-Oct-08 16:26N 34°60' E 139°51'0 0.0
2017-Oct-08 15:56N 34°60' E 139°51'0 0.0
2017-Oct-08 15:26N 34°60' E 139°51'0 0.0
2017-Oct-08 14:56N 34°60' E 139°51'0 0.0
2017-Oct-08 14:26N 34°60' E 139°51'0 0.0
2017-Oct-08 13:56N 34°60' E 139°51'0 0.0
2017-Oct-08 13:20N 34°60' E 139°51'0 0.0
2017-Oct-08 12:50N 34°60' E 139°51'0 0.0
2017-Oct-08 12:26N 34°60' E 139°51'0 0.0
2017-Oct-08 11:56N 34°60' E 139°51'0 0.0
2017-Oct-08 11:26N 34°60' E 139°51'0 0.0
2017-Oct-08 10:56N 34°60' E 139°51'0 0.0
2017-Oct-08 10:26N 34°60' E 139°51'0 0.0
2017-Oct-08 09:56N 34°60' E 139°51'0 0.0
2017-Oct-08 09:25N 34°60' E 139°51'0 0.0
2017-Oct-08 08:55N 34°60' E 139°51'0 0.0
2017-Oct-08 08:25N 34°60' E 139°51'0 0.0
2017-Oct-08 07:55N 34°60' E 139°51'0 0.0
2017-Oct-08 07:25N 34°60' E 139°51'0 0.0
2017-Oct-08 06:49N 34°60' E 139°51'0 0.0
2017-Oct-08 06:25N 34°60' E 139°51'0 0.0
2017-Oct-08 05:55N 34°60' E 139°51'0 0.0
2017-Oct-08 05:19N 34°60' E 139°51'0 0.0
2017-Oct-08 04:55N 34°60' E 139°51'0 0.0
2017-Oct-08 04:25N 34°60' E 139°51'0 0.0
2017-Oct-08 03:37N 34°60' E 139°51'0 0.0
2017-Oct-08 03:25N 34°60' E 139°51'0 0.0
2017-Oct-08 02:55N 34°60' E 139°51'0 0.0
2017-Oct-08 02:25N 34°60' E 139°51'0 0.0
2017-Oct-08 01:55N 34°60' E 139°51'0 0.0
2017-Oct-08 01:25N 34°60' E 139°51'0 0.0
2017-Oct-08 00:49N 34°60' E 139°51'0 0.0
2017-Oct-08 00:25N 34°60' E 139°51'0 0.0
2017-Oct-07 23:55N 34°60' E 139°51'0 0.0
2017-Oct-07 23:25N 34°60' E 139°51'0 0.0
2017-Oct-07 22:49N 34°60' E 139°51'0 0.0
2017-Oct-07 22:25N 34°60' E 139°51'0 0.0
2017-Oct-07 21:55N 34°60' E 139°51'0 0.5
2017-Oct-07 21:30N 34°60' E 139°51'510.7
2017-Oct-07 21:00N 34°60' E 139°44'510.7
2017-Oct-07 20:30N 34°56' E 139°39'611.9
2017-Oct-07 20:00N 34°52' E 139°35'1 1.6
2017-Oct-07 19:25N 34°51' E 139°34'0 0.8
2017-Oct-07 18:55N 34°51' E 139°35'2 0.9
2017-Oct-07 17:06N 34°50' E 139°37'1 5.8
2017-Oct-07 17:00N 34°50' E 139°37'611.2
2017-Oct-07 16:29N 34°48' E 139°44'  
Track history (hours):
 
Tides and Currents Weather Stations Pressure Air Temp Water Temp Dewpoint Dewpoint Depression Visibility Wind Speed Wind Dir Waves Ship Positions

Oceanographic research ship Umitaka Maru (Japan)

Detailed information on ship capabilities available from University of Delaware's Ocean Information Center.

Last reported at 2017-Oct-17 09:21 UTC. Time now 2017-Oct-17 15:10 UTC.
Position N 35°39' E 139°46'.

Length 93 m; beam 14.9 m; draft 6 m.

Type: Other ship. MMSI: 432187000.

Date/timePositionNaut miles runAvg speedWind from/ knotsBaromVisibWave heightAir tempDewpointWater temp
2017-Oct-17 09:21N 35°39' E 139°46'0 0.0
2017-Oct-17 08:27N 35°39' E 139°46'0 0.0
2017-Oct-17 07:51N 35°39' E 139°46'0 0.0
2017-Oct-17 07:27N 35°39' E 139°46'0 0.0
2017-Oct-17 07:00N 35°39' E 139°46'0 0.0
2017-Oct-17 06:30N 35°39' E 139°46'0 0.0
2017-Oct-17 06:00N 35°39' E 139°46'0 0.0
2017-Oct-17 05:30N 35°39' E 139°46'0 0.0
2017-Oct-17 04:48N 35°39' E 139°46'0 0.0
2017-Oct-17 04:27N 35°39' E 139°46'  
2017-Oct-13 06:06N 35°39' E 139°46'0 0.0
2017-Oct-13 05:54N 35°39' E 139°46'0 0.0
2017-Oct-13 05:21N 35°39' E 139°46'0 0.0
2017-Oct-13 02:51N 35°39' E 139°46'0 0.0
2017-Oct-13 02:30N 35°39' E 139°46'0 0.0
2017-Oct-12 07:00N 35°39' E 139°46'0 0.0
2017-Oct-12 06:27N 35°39' E 139°46'0 0.0
2017-Oct-12 05:59N 35°39' E 139°46'0 0.0
2017-Oct-12 05:05N 35°39' E 139°46'0 0.0
2017-Oct-12 04:44N 35°39' E 139°46'0 0.0
2017-Oct-12 02:47N 35°39' E 139°46'0 0.0
2017-Oct-12 02:29N 35°39' E 139°46'0 0.0
2017-Oct-10 07:28N 35°39' E 139°46'0 0.0
2017-Oct-10 05:28N 35°39' E 139°46'0 0.0
2017-Oct-10 03:04N 35°39' E 139°46'0 0.0
2017-Oct-10 02:58N 35°39' E 139°46'0 0.0
2017-Oct-10 02:19N 35°39' E 139°46'0 0.0
2017-Oct-10 01:58N 35°39' E 139°46'0 0.0
2017-Oct-10 01:25N 35°39' E 139°46'0 0.0
2017-Oct-10 00:58N 35°39' E 139°46'0 0.0
2017-Oct-10 00:28N 35°39' E 139°46'0 0.0
2017-Oct-09 23:52N 35°39' E 139°46'0 0.0
2017-Oct-09 23:28N 35°39' E 139°46'0 0.0
2017-Oct-09 22:52N 35°39' E 139°46'13 0.7
2017-Oct-09 04:01N 35°26' E 139°49'012.7
2017-Oct-09 04:00N 35°26' E 139°49'712.3
2017-Oct-09 03:25N 35°20' E 139°44'511.6
2017-Oct-09 03:00N 35°16' E 139°47'511.0
2017-Oct-09 02:30N 35°10' E 139°46'5 9.9
2017-Oct-09 02:00N 35°06' E 139°43'510.8
2017-Oct-09 01:30N 35°06' E 139°36'510.7
2017-Oct-09 00:59N 35°06' E 139°30'1 2.4
2017-Oct-09 00:30N 35°06' E 139°28'1 1.2
2017-Oct-09 00:00N 35°05' E 139°28'1 1.8
2017-Oct-08 23:30N 35°04' E 139°28'611.2
2017-Oct-08 22:59N 35°03' E 139°34'612.1
2017-Oct-08 22:30N 35°02' E 139°42'612.5
2017-Oct-08 22:00N 35°00' E 139°49'2 2.9
2017-Oct-08 21:26N 34°60' E 139°51'0 0.0
2017-Oct-08 20:26N 34°60' E 139°51'0 0.0
2017-Oct-08 19:38N 34°60' E 139°51'0 0.0
2017-Oct-08 19:26N 34°60' E 139°51'0 0.0
2017-Oct-08 18:44N 34°60' E 139°51'0 0.0
2017-Oct-08 18:20N 34°60' E 139°51'0 0.0
2017-Oct-08 17:56N 34°60' E 139°51'0 0.0
2017-Oct-08 17:20N 34°60' E 139°51'0 0.0
2017-Oct-08 16:56N 34°60' E 139°51'0 0.0
2017-Oct-08 16:26N 34°60' E 139°51'0 0.0
2017-Oct-08 15:56N 34°60' E 139°51'0 0.0
2017-Oct-08 15:26N 34°60' E 139°51'0 0.0
2017-Oct-08 14:56N 34°60' E 139°51'0 0.0
2017-Oct-08 14:26N 34°60' E 139°51'0 0.0
2017-Oct-08 13:56N 34°60' E 139°51'0 0.0
2017-Oct-08 13:20N 34°60' E 139°51'0 0.0
2017-Oct-08 12:50N 34°60' E 139°51'0 0.0
2017-Oct-08 12:26N 34°60' E 139°51'0 0.0
2017-Oct-08 11:56N 34°60' E 139°51'0 0.0
2017-Oct-08 11:26N 34°60' E 139°51'0 0.0
2017-Oct-08 10:56N 34°60' E 139°51'0 0.0
2017-Oct-08 10:26N 34°60' E 139°51'0 0.0
2017-Oct-08 09:56N 34°60' E 139°51'0 0.0
2017-Oct-08 09:25N 34°60' E 139°51'0 0.0
2017-Oct-08 08:55N 34°60' E 139°51'0 0.0
2017-Oct-08 08:25N 34°60' E 139°51'0 0.0
2017-Oct-08 07:55N 34°60' E 139°51'0 0.0
2017-Oct-08 07:25N 34°60' E 139°51'0 0.0
2017-Oct-08 06:49N 34°60' E 139°51'0 0.0
2017-Oct-08 06:25N 34°60' E 139°51'0 0.0
2017-Oct-08 05:55N 34°60' E 139°51'0 0.0
2017-Oct-08 05:19N 34°60' E 139°51'0 0.0
2017-Oct-08 04:55N 34°60' E 139°51'0 0.0
2017-Oct-08 04:25N 34°60' E 139°51'0 0.0
2017-Oct-08 03:37N 34°60' E 139°51'0 0.0
2017-Oct-08 03:25N 34°60' E 139°51'0 0.0
2017-Oct-08 02:55N 34°60' E 139°51'0 0.0
2017-Oct-08 02:25N 34°60' E 139°51'0 0.0
2017-Oct-08 01:55N 34°60' E 139°51'0 0.0
2017-Oct-08 01:25N 34°60' E 139°51'0 0.0
2017-Oct-08 00:49N 34°60' E 139°51'0 0.0
2017-Oct-08 00:25N 34°60' E 139°51'0 0.0
2017-Oct-07 23:55N 34°60' E 139°51'0 0.0
2017-Oct-07 23:25N 34°60' E 139°51'0 0.0
2017-Oct-07 22:49N 34°60' E 139°51'0 0.0
2017-Oct-07 22:25N 34°60' E 139°51'0 0.0
2017-Oct-07 21:55N 34°60' E 139°51'0 0.5
2017-Oct-07 21:30N 34°60' E 139°51'510.7
2017-Oct-07 21:00N 34°60' E 139°44'510.7
2017-Oct-07 20:30N 34°56' E 139°39'611.9
2017-Oct-07 20:00N 34°52' E 139°35'1 1.6
2017-Oct-07 19:25N 34°51' E 139°34'0 0.8
2017-Oct-07 18:55N 34°51' E 139°35'2 0.9
2017-Oct-07 17:06N 34°50' E 139°37'1 5.8
2017-Oct-07 17:00N 34°50' E 139°37'611.2
2017-Oct-07 16:29N 34°48' E 139°44'  

Dump ship's entire track history